Airport View

Enter AWOS ICAO identifier for current METAR.

ex. KFNL

K42J 250540Z AUTO 00000KT 6SM CLR 09/09 A2999 RMK AO1 TSNO

25 Nov 2017 05:47

Frequency: 124.275

Phone: 352-473-8273

Other Area AWOS: KGNV - K28J - KVQQ - KNIP

TAF AMD KGNV 250222Z 2502/2524 00000KT P6SM BKN035 FM250800 00000KT 3SM BR SCT008 FM251500 28006KT P6SM FEW010